Time;durP1;ratioP1;P1;durP2;ratioP2;P2;SDS_P1;SDS_P2;PMS_P1;PMS_P2;Temp;Humidity;BMP_temperature;BMP_pressure;BME280_temperature;BME280_humidity;BME280_pressure;Samples;Min_cycle;Max_cycle;Signal;HPM_P1;HPM_P2
2022/12/20 00:02:23;;;;;;;12.80;4.20;;;;;;;8.45;96.18;101211.56;5046341;28;20029;-71
2022/12/20 00:04:48;;;;;;;15.27;4.43;;;;;;;8.48;96.25;101214.06;5038775;28;20092;-71
2022/12/20 00:07:13;;;;;;;14.65;4.40;;;;;;;8.46;96.28;101213.28;5043763;28;20036;-71
2022/12/20 00:09:39;;;;;;;16.13;4.07;;;;;;;8.47;96.34;101217.69;5058493;28;20055;-71
2022/12/20 00:12:04;;;;;;;17.02;4.45;;;;;;;8.49;96.29;101205.06;5056501;28;20029;-71
2022/12/20 00:14:29;;;;;;;15.27;4.40;;;;;;;8.49;96.26;101213.09;5052494;28;20496;-71
2022/12/20 00:16:55;;;;;;;13.10;4.47;;;;;;;8.53;95.88;101203.94;5053582;28;20036;-71
2022/12/20 00:19:20;;;;;;;16.67;5.00;;;;;;;8.56;95.81;101196.59;5044064;28;20040;-71
2022/12/20 00:21:45;;;;;;;14.60;4.30;;;;;;;8.60;95.61;101199.09;5051071;28;20476;-71
2022/12/20 00:24:10;;;;;;;15.98;4.28;;;;;;;8.65;95.18;101200.53;5044262;28;20033;-71
2022/12/20 00:26:36;;;;;;;13.90;4.30;;;;;;;8.67;95.17;101201.31;5051419;28;20033;-71
2022/12/20 00:29:03;;;;;;;15.95;5.05;;;;;;;8.68;95.53;101197.69;5037752;28;20075;-71
2022/12/20 00:31:29;;;;;;;16.45;4.97;;;;;;;8.69;94.86;101186.00;5044741;28;20024;-71
2022/12/20 00:33:56;;;;;;;15.00;4.65;;;;;;;8.70;95.09;101182.38;5037590;28;20488;-71
2022/12/20 00:36:24;;;;;;;16.98;4.75;;;;;;;8.74;94.85;101194.63;5042566;28;20033;-71
2022/12/20 00:38:51;;;;;;;16.77;4.93;;;;;;;8.78;94.79;101191.75;5049106;28;20048;-71
2022/12/20 00:41:22;;;;;;;18.17;5.80;;;;;;;8.80;94.85;101184.47;5054380;28;20492;-71
2022/12/20 00:43:48;;;;;;;15.48;4.40;;;;;;;8.87;93.83;101177.78;5044065;28;20028;-71
2022/12/20 00:46:15;;;;;;;22.10;5.03;;;;;;;8.87;94.24;101167.97;5051321;28;20492;-71
2022/12/20 00:48:41;;;;;;;13.73;4.47;;;;;;;8.94;93.98;101172.94;5038558;28;20018;-71
2022/12/20 00:51:13;;;;;;;15.73;4.82;;;;;;;8.99;93.30;101174.38;5040835;28;20033;-71
2022/12/20 00:53:40;;;;;;;17.40;4.63;;;;;;;9.00;93.98;101181.44;5044915;28;20557;-71
2022/12/20 00:56:06;;;;;;;11.52;3.58;;;;;;;9.01;93.69;101180.50;5044836;28;20055;-71
2022/12/20 00:58:33;;;;;;;19.20;3.95;;;;;;;9.01;94.06;101172.44;5042003;28;20025;-71
2022/12/20 01:00:58;;;;;;;13.77;4.05;;;;;;;9.05;94.47;101182.03;5051992;28;20025;-71
2022/12/20 01:03:24;;;;;;;13.55;4.05;;;;;;;9.06;95.58;101183.78;5053238;28;20036;-71
2022/12/20 01:06:00;;;;;;;13.50;4.20;;;;;;;9.07;96.98;101172.06;5045213;28;20108;-71
2022/12/20 01:08:28;;;;;;;11.77;4.10;;;;;;;9.07;97.63;101169.38;5045039;28;20055;-71
2022/12/20 01:11:02;;;;;;;14.40;3.72;;;;;;;9.03;98.72;101175.88;5042793;28;20113;-71
2022/12/20 01:13:27;;;;;;;11.32;3.42;;;;;;;9.02;99.60;101190.28;5035717;28;20064;-72
2022/12/20 01:15:53;;;;;;;12.27;3.80;;;;;;;9.00;99.95;101186.81;5050243;28;20604;-71
2022/12/20 01:18:19;;;;;;;9.60;3.60;;;;;;;8.99;100.00;101185.09;5045767;28;20025;-71
2022/12/20 01:20:44;;;;;;;14.32;4.07;;;;;;;8.96;100.00;101176.38;5042400;28;20553;-72
2022/12/20 01:23:09;;;;;;;12.93;4.10;;;;;;;8.94;100.00;101176.47;5048559;28;20452;-72
2022/12/20 01:25:34;;;;;;;13.70;3.90;;;;;;;8.94;100.00;101171.09;5068273;28;20052;-72
2022/12/20 01:28:00;;;;;;;12.23;3.63;;;;;;;8.91;100.00;101180.19;5050748;28;20060;-72
2022/12/20 01:30:25;;;;;;;11.57;3.95;;;;;;;8.88;100.00;101177.69;5041973;28;20376;-72
2022/12/20 01:32:50;;;;;;;12.02;4.03;;;;;;;8.84;100.00;101186.03;5052808;28;20032;-72
2022/12/20 01:35:15;;;;;;;10.75;3.88;;;;;;;8.81;100.00;101178.19;5052366;28;20456;-72
2022/12/20 01:37:41;;;;;;;14.68;4.18;;;;;;;8.79;100.00;101174.75;5043771;28;20025;-72
2022/12/20 01:40:09;;;;;;;13.38;4.47;;;;;;;8.76;100.00;101162.38;5045765;28;20167;-71
2022/12/20 01:42:34;;;;;;;10.50;4.10;;;;;;;8.73;100.00;101157.22;5054175;28;20061;-72
2022/12/20 01:45:00;;;;;;;10.45;4.07;;;;;;;8.70;100.00;101163.59;5042598;28;20036;-71
2022/12/20 01:47:30;;;;;;;12.93;3.83;;;;;;;8.68;100.00;101160.16;5039829;28;20031;-72
2022/12/20 01:49:58;;;;;;;12.35;4.07;;;;;;;8.66;100.00;101164.75;5036365;28;20032;-71
2022/12/20 01:52:31;;;;;;;10.43;3.42;;;;;;;8.63;100.00;101140.81;5040453;28;20025;-72
2022/12/20 01:55:08;;;;;;;12.18;4.22;;;;;;;8.62;100.00;101140.91;5047961;28;20066;-71
2022/12/20 01:57:48;;;;;;;12.35;4.10;;;;;;;8.59;100.00;101141.09;5043485;28;20162;-72
2022/12/20 02:00:13;;;;;;;;;;;;;;;8.62;100.00;101133.72;5050264;28;20029;-72
2022/12/20 02:02:40;;;;;;;15.75;4.60;;;;;;;8.59;100.00;101133.91;5051423;28;19916;-70
2022/12/20 02:05:06;;;;;;;12.75;4.25;;;;;;;8.57;100.00;101141.19;5039907;28;20065;-71
2022/12/20 02:07:34;;;;;;;11.98;4.35;;;;;;;8.54;100.00;101134.19;5047667;28;20060;-70
2022/12/20 02:10:01;;;;;;;13.73;4.13;;;;;;;8.52;100.00;101133.44;5034774;28;20036;-71
2022/12/20 02:12:36;;;;;;;15.55;4.68;;;;;;;8.53;100.00;101118.22;5049142;28;20013;-70
2022/12/20 02:15:31;;;;;;;18.52;5.07;;;;;;;8.51;100.00;101115.63;5037460;28;20108;-70
2022/12/20 02:18:05;;;;;;;17.27;4.65;;;;;;;8.52;100.00;101108.44;5036247;28;20476;-70
2022/12/20 02:20:46;;;;;;;14.35;4.40;;;;;;;8.51;100.00;101096.88;5037102;28;20111;-70
2022/12/20 02:23:45;;;;;;;12.75;4.28;;;;;;;8.50;100.00;101105.00;5052397;28;20568;-70
2022/12/20 02:26:34;;;;;;;13.90;4.28;;;;;;;8.48;100.00;101098.91;5054514;28;20025;-70
2022/12/20 02:29:16;;;;;;;10.27;3.83;;;;;;;8.47;100.00;101107.88;5055467;28;20037;-70
2022/12/20 02:31:49;;;;;;;13.18;3.95;;;;;;;8.44;100.00;101098.22;5055421;28;20044;-70
2022/12/20 02:34:16;;;;;;;11.82;3.95;;;;;;;8.44;100.00;101102.69;5055600;28;20029;-71
2022/12/20 02:36:41;;;;;;;13.68;4.28;;;;;;;8.41;100.00;101090.31;5052109;28;20362;-70
2022/12/20 02:39:11;;;;;;;11.63;3.50;;;;;;;8.41;100.00;101093.00;5036306;28;20032;-71
2022/12/20 02:41:42;;;;;;;10.25;3.83;;;;;;;8.39;100.00;101097.59;5036724;28;20037;-71
2022/12/20 02:46:59;;;;;;;12.15;3.72;;;;;;;8.39;100.00;101092.25;5035514;28;20044;-70
2022/12/20 02:49:29;;;;;;;10.50;3.70;;;;;;;8.41;100.00;101098.34;5042420;28;20059;-70
2022/12/20 02:51:56;;;;;;;11.13;3.35;;;;;;;8.41;100.00;101076.94;5054053;28;20431;-70
2022/12/20 02:54:23;;;;;;;12.80;3.60;;;;;;;8.41;100.00;101082.28;5040400;28;20398;-70
2022/12/20 02:56:48;;;;;;;12.45;3.95;;;;;;;8.40;100.00;101078.75;5058945;28;20021;-70
2022/12/20 02:59:56;;;;;;;11.20;3.40;;;;;;;8.41;100.00;101079.63;5051434;28;20045;-71
2022/12/20 03:02:24;;;;;;;12.93;3.80;;;;;;;8.43;100.00;101079.50;5055277;28;20055;-70
2022/12/20 03:04:50;;;;;;;11.38;3.33;;;;;;;8.45;100.00;101078.50;5057002;28;20012;-70
2022/12/20 03:07:15;;;;;;;11.63;3.50;;;;;;;8.47;100.00;101081.09;5055532;28;20502;-70
2022/12/20 03:09:43;;;;;;;11.50;3.38;;;;;;;8.46;100.00;101080.22;5049017;28;20017;-70
2022/12/20 03:12:10;;;;;;;9.32;2.90;;;;;;;8.48;100.00;101081.00;5059216;28;20021;-70
2022/12/20 03:14:36;;;;;;;9.95;3.28;;;;;;;8.51;100.00;101085.31;5056679;28;20100;-70
2022/12/20 03:17:03;;;;;;;13.07;3.60;;;;;;;8.54;100.00;101085.13;5050936;28;20033;-70
2022/12/20 03:19:28;;;;;;;14.23;4.10;;;;;;;8.57;100.00;101079.56;5037260;28;20022;-70
2022/12/20 03:21:53;;;;;;;8.52;2.80;;;;;;;8.58;100.00;101084.00;5051726;28;20048;-70
2022/12/20 03:24:19;;;;;;;9.70;3.22;;;;;;;8.63;100.00;101068.47;5058375;28;20048;-70
2022/12/20 03:26:44;;;;;;;10.73;3.60;;;;;;;8.67;100.00;101067.34;5043886;28;20025;-71
2022/12/20 03:29:10;;;;;;;12.65;3.50;;;;;;;8.71;100.00;101073.34;5058772;28;20472;-70
2022/12/20 03:31:36;;;;;;;7.80;3.00;;;;;;;8.74;100.00;101067.81;5057986;28;20027;-70
2022/12/20 03:34:02;;;;;;;11.05;3.83;;;;;;;8.79;100.00;101070.22;5057018;28;20546;-70
2022/12/20 03:36:27;;;;;;;12.90;3.67;;;;;;;8.82;100.00;101072.72;5054343;28;20033;-71
2022/12/20 03:38:53;;;;;;;10.52;3.20;;;;;;;8.85;100.00;101080.56;5040236;28;20075;-70
2022/12/20 03:41:20;;;;;;;10.13;3.40;;;;;;;8.85;100.00;101080.56;5040812;28;20045;-70
2022/12/20 03:43:46;;;;;;;10.75;3.53;;;;;;;8.84;100.00;101085.03;5058759;28;20032;-71
2022/12/20 03:46:12;;;;;;;8.35;3.13;;;;;;;8.85;100.00;101086.75;5038999;28;20036;-70
2022/12/20 03:48:37;;;;;;;10.18;3.72;;;;;;;8.87;100.00;101082.19;5050752;28;20306;-70
2022/12/20 03:51:03;;;;;;;9.90;3.28;;;;;;;8.90;100.00;101073.94;5050405;28;20053;-70
2022/12/20 03:53:28;;;;;;;11.25;3.78;;;;;;;8.96;100.00;101078.06;5044211;28;20086;-70
2022/12/20 03:55:54;;;;;;;9.82;3.05;;;;;;;9.00;100.00;101082.25;5039441;28;20040;-69
2022/12/20 03:58:19;;;;;;;14.05;4.30;;;;;;;9.02;100.00;101066.06;5039025;28;20104;-70
2022/12/20 04:00:44;;;;;;;12.07;3.78;;;;;;;9.05;100.00;101066.75;5052730;28;20108;-70
2022/12/20 04:03:10;;;;;;;12.80;3.65;;;;;;;9.09;100.00;101070.97;5045465;28;20071;-70
2022/12/20 04:05:35;;;;;;;12.00;3.92;;;;;;;9.12;100.00;101066.34;5057557;28;20060;-70
2022/12/20 04:08:00;;;;;;;11.45;3.55;;;;;;;9.13;100.00;101066.25;5055894;28;20108;-70
2022/12/20 04:10:26;;;;;;;11.82;3.53;;;;;;;9.17;100.00;101070.47;5056806;28;20431;-70
2022/12/20 04:12:51;;;;;;;11.88;3.38;;;;;;;9.17;100.00;101069.63;5054973;28;20028;-71
2022/12/20 04:15:17;;;;;;;11.32;3.63;;;;;;;9.21;100.00;101063.94;5056773;28;20028;-70
2022/12/20 04:17:42;;;;;;;10.55;3.17;;;;;;;9.26;100.00;101077.06;5057177;28;20116;-70
2022/12/20 04:20:20;;;;;;;12.60;3.72;;;;;;;9.28;100.00;101064.41;5047298;28;20026;-70
2022/12/20 04:22:50;;;;;;;11.48;4.03;;;;;;;9.26;100.00;101077.91;5036887;28;20022;-71
2022/12/20 04:25:18;;;;;;;9.57;3.22;;;;;;;9.27;100.00;101065.38;5038407;28;20380;-70
2022/12/20 04:27:44;;;;;;;8.80;3.13;;;;;;;9.29;100.00;101059.91;5037157;28;20065;-70
2022/12/20 04:30:11;;;;;;;12.68;3.33;;;;;;;9.31;100.00;101056.16;5038853;28;20432;-70
2022/12/20 04:32:36;;;;;;;9.18;3.47;;;;;;;9.33;100.00;101059.63;5056593;28;20067;-70
2022/12/20 04:35:02;;;;;;;9.70;3.10;;;;;;;9.33;100.00;101054.25;5041227;28;20033;-70
2022/12/20 04:37:29;;;;;;;10.13;3.30;;;;;;;9.35;100.00;101063.06;5036841;28;20030;-70
2022/12/20 04:39:55;;;;;;;7.90;3.08;;;;;;;9.36;100.00;101054.06;5040235;28;20029;-70
2022/12/20 04:42:20;;;;;;;7.05;3.08;;;;;;;9.37;100.00;101050.41;5050627;28;20128;-70
2022/12/20 04:44:46;;;;;;;8.32;3.03;;;;;;;9.37;100.00;101045.06;5077492;28;20468;-70
2022/12/20 04:47:11;;;;;;;9.05;3.22;;;;;;;9.38;100.00;101048.59;5040345;28;20044;-70
2022/12/20 04:49:36;;;;;;;11.43;3.58;;;;;;;9.40;100.00;101052.00;5039363;28;20124;-70
2022/12/20 04:54:46;;;;;;;9.38;3.47;;;;;;;9.41;100.00;101045.69;5050208;28;20051;-72
2022/12/20 04:57:12;;;;;;;11.50;3.20;;;;;;;9.41;100.00;101064.47;5052417;28;20463;-70
2022/12/20 04:59:37;;;;;;;9.38;3.33;;;;;;;9.41;100.00;101056.44;5048093;28;20061;-70
2022/12/20 05:02:02;;;;;;;12.48;3.90;;;;;;;9.40;100.00;101039.47;5049131;28;20028;-70
2022/12/20 05:04:28;;;;;;;9.77;3.08;;;;;;;9.40;100.00;101034.13;5049787;28;20427;-70
2022/12/20 05:06:53;;;;;;;11.63;3.55;;;;;;;9.43;100.00;101036.59;5042492;28;20022;-70
2022/12/20 05:09:18;;;;;;;12.50;3.42;;;;;;;9.45;100.00;101037.34;5045673;28;20118;-69
2022/12/20 05:11:43;;;;;;;9.55;3.42;;;;;;;9.47;100.00;101031.03;5049953;28;20391;-71
2022/12/20 05:14:09;;;;;;;14.52;3.97;;;;;;;9.48;100.00;101032.75;5039441;28;20032;-70
2022/12/20 05:16:34;;;;;;;8.35;2.78;;;;;;;9.48;100.00;101032.75;5039586;28;20091;-70
2022/12/20 05:19:01;;;;;;;13.02;3.83;;;;;;;9.47;100.00;101026.50;5051239;28;20028;-70
2022/12/20 05:26:54;;;;;;;9.68;3.50;;;;;;;9.46;100.00;101006.03;5035854;28;20044;-70
2022/12/20 05:29:19;;;;;;;14.80;3.20;;;;;;;9.47;100.00;101006.88;5035241;28;20115;-70
2022/12/20 05:31:45;;;;;;;9.68;2.85;;;;;;;9.50;100.00;101004.84;5050064;28;20025;-70
2022/12/20 05:34:10;;;;;;;9.30;3.10;;;;;;;9.47;100.00;101010.41;5049375;28;20032;-70
2022/12/20 05:36:35;;;;;;;9.98;3.63;;;;;;;9.47;100.00;101004.19;5036232;28;20068;-70
2022/12/20 05:39:01;;;;;;;11.23;3.38;;;;;;;9.48;100.00;101000.56;5036038;28;20029;-70
2022/12/20 05:41:26;;;;;;;9.55;3.10;;;;;;;9.47;100.00;101001.53;5040864;28;20124;-70
2022/12/20 05:43:51;;;;;;;14.00;4.10;;;;;;;9.46;100.00;100992.63;5047646;28;20072;-70
2022/12/20 05:46:17;;;;;;;10.32;3.50;;;;;;;9.44;100.00;100986.47;5049327;28;20021;-70
2022/12/20 05:48:42;;;;;;;7.38;2.90;;;;;;;9.42;100.00;101000.00;5055430;28;20092;-71
2022/12/20 05:51:07;;;;;;;8.30;2.97;;;;;;;9.42;100.00;100994.63;5043526;28;20086;-70
2022/12/20 05:53:32;;;;;;;9.57;3.03;;;;;;;9.41;100.00;100992.94;5044356;28;20032;-70
2022/12/20 05:55:58;;;;;;;10.48;3.83;;;;;;;9.40;100.00;100975.09;5037662;28;20037;-70
2022/12/20 05:58:24;;;;;;;10.40;3.45;;;;;;;9.40;100.00;100974.22;5054747;28;20060;-70
2022/12/20 06:00:49;;;;;;;11.45;3.45;;;;;;;9.39;100.00;100968.00;5044374;28;20488;-70
2022/12/20 06:03:14;;;;;;;9.27;3.08;;;;;;;9.38;100.00;100971.66;5050468;28;20033;-70
2022/12/20 06:05:41;;;;;;;9.85;2.97;;;;;;;9.39;100.00;100961.78;5042716;28;20031;-70
2022/12/20 06:08:07;;;;;;;8.45;2.70;;;;;;;9.39;100.00;100943.88;5043310;28;20021;-70
2022/12/20 06:10:33;;;;;;;9.13;3.35;;;;;;;9.40;100.00;100937.56;5038185;28;20690;-70
2022/12/20 06:13:03;;;;;;;11.40;3.22;;;;;;;9.38;100.00;100926.03;5036014;28;20401;-70
2022/12/20 06:15:29;;;;;;;5.57;2.50;;;;;;;9.38;100.00;100934.09;5039609;28;20027;-70
2022/12/20 06:17:55;;;;;;;8.32;3.05;;;;;;;9.39;100.00;100937.66;5040819;28;20029;-70
2022/12/20 06:20:21;;;;;;;9.10;3.25;;;;;;;9.38;100.00;100938.59;5050723;28;20499;-70
2022/12/20 06:22:46;;;;;;;9.60;2.80;;;;;;;9.37;100.00;100931.50;5034282;28;20132;-70
2022/12/20 06:25:13;;;;;;;11.80;3.00;;;;;;;9.34;100.00;100929.91;5049787;28;20039;-70
2022/12/20 06:27:39;;;;;;;11.32;3.28;;;;;;;9.35;100.00;100934.31;5051216;28;20370;-71
2022/12/20 06:30:05;;;;;;;10.77;3.28;;;;;;;9.33;100.00;100941.59;5047467;28;20048;-70
2022/12/20 06:32:30;;;;;;;8.00;2.78;;;;;;;9.33;100.00;100943.44;5050420;28;20029;-70
2022/12/20 06:34:56;;;;;;;8.90;2.72;;;;;;;9.31;100.00;100951.56;5044220;28;20044;-70
2022/12/20 06:37:21;;;;;;;8.18;2.90;;;;;;;9.29;100.00;100944.59;5053334;28;20086;-70
2022/12/20 06:39:46;;;;;;;7.15;2.80;;;;;;;9.28;100.00;100949.06;5052790;28;20472;-70
2022/12/20 06:42:12;;;;;;;11.35;3.00;;;;;;;9.28;100.00;100949.06;5055078;28;20091;-70
2022/12/20 06:44:37;;;;;;;7.00;2.55;;;;;;;9.26;99.91;100938.44;5037867;28;20029;-70
2022/12/20 06:47:03;;;;;;;11.13;3.17;;;;;;;9.27;99.60;100942.00;5041299;28;20472;-70
2022/12/20 06:49:29;;;;;;;7.55;2.97;;;;;;;9.27;99.35;100947.38;5052781;28;20033;-70
2022/12/20 06:51:54;;;;;;;7.63;2.47;;;;;;;9.26;99.31;100946.50;5055348;28;20033;-71
2022/12/20 06:54:20;;;;;;;8.80;2.72;;;;;;;9.29;99.09;100947.28;5044385;28;20541;-71
2022/12/20 06:56:45;;;;;;;7.35;2.70;;;;;;;9.27;98.84;100942.88;5043088;28;20498;-70
2022/12/20 06:59:11;;;;;;;8.68;2.83;;;;;;;9.28;98.78;100954.44;5040022;28;20025;-71
2022/12/20 07:01:36;;;;;;;8.90;3.00;;;;;;;9.29;98.86;100944.59;5049326;28;20450;-71
2022/12/20 07:04:02;;;;;;;6.32;2.60;;;;;;;9.30;98.38;100946.28;5056241;28;20469;-70
2022/12/20 07:06:28;;;;;;;9.32;2.90;;;;;;;9.33;98.10;100952.31;5047781;28;20025;-72
2022/12/20 07:08:53;;;;;;;11.52;3.35;;;;;;;9.34;98.00;100954.06;5042790;28;20041;-74
2022/12/20 07:11:19;;;;;;;10.30;2.80;;;;;;;9.36;97.85;100949.44;5044052;28;20056;-70
2022/12/20 07:13:44;;;;;;;6.68;2.78;;;;;;;9.37;98.00;100950.28;5040254;28;20021;-70
2022/12/20 07:16:09;;;;;;;9.20;3.00;;;;;;;9.37;97.66;100958.34;5047629;28;20032;-70
2022/12/20 07:18:35;;;;;;;11.80;2.67;;;;;;;9.36;97.46;100962.84;5040480;28;20506;-70
2022/12/20 07:21:03;;;;;;;6.97;2.83;;;;;;;9.39;97.37;100962.66;5041716;28;20027;-69
2022/12/20 07:23:28;;;;;;;10.35;2.97;;;;;;;9.38;97.33;100955.56;5037668;28;20026;-71
2022/12/20 07:25:55;;;;;;;9.57;2.63;;;;;;;9.40;96.93;100945.59;5042779;28;20376;-70
2022/12/20 07:28:21;;;;;;;10.82;2.92;;;;;;;9.41;96.72;100955.38;5039841;28;20036;-69
2022/12/20 07:30:47;;;;;;;9.27;3.20;;;;;;;9.43;96.28;100955.28;5040985;28;20021;-69
2022/12/20 07:33:12;;;;;;;10.30;2.85;;;;;;;9.44;96.41;100954.28;5048039;28;20494;-69
2022/12/20 07:35:37;;;;;;;10.65;2.75;;;;;;;9.44;96.47;100954.28;5049987;28;20036;-68
2022/12/20 07:38:03;;;;;;;7.30;2.45;;;;;;;9.43;96.44;100956.13;5056996;28;20103;-70
2022/12/20 07:40:28;;;;;;;8.30;3.00;;;;;;;9.43;96.09;100958.81;5044709;28;20477;-69
2022/12/20 07:42:53;;;;;;;8.77;2.92;;;;;;;9.47;96.03;100963.97;5043008;28;20519;-70
2022/12/20 07:45:19;;;;;;;8.05;2.95;;;;;;;9.49;95.10;100965.59;5057153;28;20047;-70
2022/12/20 07:47:44;;;;;;;6.75;2.65;;;;;;;9.53;95.65;100966.22;5057756;28;20498;-71
2022/12/20 07:50:10;;;;;;;7.32;3.03;;;;;;;9.55;95.14;100970.53;5053197;28;20455;-70
2022/12/20 07:52:37;;;;;;;7.47;2.47;;;;;;;9.54;95.42;100970.63;5056769;28;20048;-69
2022/12/20 07:55:05;;;;;;;11.77;3.28;;;;;;;9.56;94.75;100971.38;5058004;28;20025;-69
2022/12/20 07:57:36;;;;;;;11.68;3.40;;;;;;;9.56;95.58;100984.78;5050688;28;20083;-69
2022/12/20 08:00:03;;;;;;;7.32;2.63;;;;;;;9.58;96.44;100986.41;5057802;28;20029;-70
2022/12/20 08:02:36;;;;;;;9.95;3.10;;;;;;;9.58;97.02;100981.06;5052492;28;20029;-70
2022/12/20 08:05:07;;;;;;;8.55;2.85;;;;;;;9.56;98.32;100976.75;5054106;28;20029;-70
2022/12/20 08:07:33;;;;;;;10.82;3.72;;;;;;;9.52;98.81;100973.41;5054406;28;20032;-71
2022/12/20 08:09:59;;;;;;;10.52;3.17;;;;;;;9.51;99.70;100976.22;5052195;28;20476;-70
2022/12/20 08:12:26;;;;;;;8.35;3.10;;;;;;;9.47;100.00;100972.00;5054726;28;20074;-69
2022/12/20 08:14:54;;;;;;;12.02;2.88;;;;;;;9.46;100.00;100976.53;5050807;28;20041;-70
2022/12/20 08:17:20;;;;;;;13.25;3.60;;;;;;;9.44;100.00;100965.00;5053440;28;20031;-70
2022/12/20 08:19:46;;;;;;;8.63;3.00;;;;;;;9.44;100.00;100973.06;5059141;28;20096;-69
2022/12/20 08:22:11;;;;;;;9.70;2.88;;;;;;;9.43;100.00;100972.22;5057491;28;20032;-69
2022/12/20 08:24:37;;;;;;;8.35;2.78;;;;;;;9.42;100.00;100975.84;5056487;28;20028;-69
2022/12/20 08:27:02;;;;;;;14.48;3.17;;;;;;;9.41;100.00;100979.53;5062741;28;20040;-71
2022/12/20 08:29:27;;;;;;;8.57;2.78;;;;;;;9.41;100.00;100976.84;5050983;28;20025;-70
2022/12/20 08:31:53;;;;;;;14.48;3.20;;;;;;;9.39;100.00;100968.00;5056181;28;20028;-70
2022/12/20 08:34:18;;;;;;;10.80;3.03;;;;;;;9.37;100.00;100974.44;5051465;28;20072;-69
2022/12/20 08:36:43;;;;;;;9.25;2.83;;;;;;;9.35;100.00;100969.16;5053563;28;20031;-70
2022/12/20 08:39:10;;;;;;;9.90;3.17;;;;;;;9.34;100.00;100977.31;5052671;28;20488;-72
2022/12/20 08:41:36;;;;;;;12.13;3.40;;;;;;;9.32;100.00;100977.41;5054054;28;20601;-71
2022/12/20 08:44:02;;;;;;;8.52;2.97;;;;;;;9.30;100.00;100965.94;5047622;28;20036;-69
2022/12/20 08:46:27;;;;;;;7.95;3.05;;;;;;;9.28;100.00;100959.81;5053047;28;20028;-72
2022/12/20 08:48:52;;;;;;;8.45;3.15;;;;;;;9.27;100.00;100953.59;5048661;28;20025;-71
2022/12/20 08:51:18;;;;;;;9.80;3.33;;;;;;;9.24;100.00;100961.84;5046855;28;20036;-71
2022/12/20 08:53:43;;;;;;;11.30;3.17;;;;;;;9.21;100.00;100955.81;5051695;28;20029;-71
2022/12/20 08:56:12;;;;;;;11.38;2.90;;;;;;;9.17;100.00;100960.53;5049038;28;20035;-71
2022/12/20 08:58:38;;;;;;;9.20;3.25;;;;;;;9.15;100.00;100958.91;5049217;28;20107;-72
2022/12/20 09:01:07;;;;;;;8.70;2.90;;;;;;;9.12;100.00;100953.75;5045795;28;20082;-72
2022/12/20 09:03:34;;;;;;;13.57;3.37;;;;;;;9.07;100.00;100952.22;5046546;28;20476;-73
2022/12/20 09:06:00;;;;;;;11.63;3.30;;;;;;;9.06;100.00;100947.84;5065617;28;20279;-73
2022/12/20 09:08:25;;;;;;;9.98;3.58;;;;;;;9.04;100.00;100952.41;5051424;28;20025;-73
2022/12/20 09:10:52;;;;;;;13.50;3.50;;;;;;;9.02;100.00;100940.94;5050082;28;20059;-72
2022/12/20 09:13:17;;;;;;;11.52;3.53;;;;;;;9.04;100.00;100938.16;5049836;28;20056;-74
2022/12/20 09:15:44;;;;;;;9.48;3.47;;;;;;;9.04;100.00;100940.84;5048666;28;20134;-72
2022/12/20 09:18:10;;;;;;;10.77;3.65;;;;;;;9.03;100.00;100937.28;5056956;28;20044;-72
2022/12/20 09:20:35;;;;;;;13.35;3.85;;;;;;;9.04;100.00;100947.06;5056488;28;20024;-72
2022/12/20 09:23:00;;;;;;;14.30;3.53;;;;;;;9.04;100.00;100947.06;5055556;28;20144;-72
2022/12/20 09:25:27;;;;;;;12.15;4.22;;;;;;;9.06;100.00;100945.16;5051639;28;20025;-73
2022/12/20 09:27:55;;;;;;;8.75;3.08;;;;;;;9.08;100.00;100955.78;5052510;28;20025;-72
2022/12/20 09:30:21;;;;;;;12.65;3.60;;;;;;;9.08;100.00;100948.59;5050415;28;20104;-73
2022/12/20 09:32:46;;;;;;;9.57;3.38;;;;;;;9.10;100.00;100954.69;5056814;28;20467;-73
2022/12/20 09:35:11;;;;;;;11.88;3.92;;;;;;;9.14;100.00;100954.53;5052937;28;20029;-72
2022/12/20 09:37:37;;;;;;;12.63;3.88;;;;;;;9.16;100.00;100955.25;5065045;28;20050;-72
2022/12/20 09:40:03;;;;;;;11.35;3.50;;;;;;;9.17;100.00;100949.81;5049100;28;20021;-72
2022/12/20 09:42:29;;;;;;;9.15;3.33;;;;;;;9.19;100.00;100938.97;5047784;28;20580;-74
2022/12/20 09:45:04;;;;;;;10.60;3.40;;;;;;;9.23;100.00;100943.19;5051018;28;20029;-72
2022/12/20 09:47:32;;;;;;;9.43;3.22;;;;;;;9.25;100.00;100943.91;5049898;28;20495;-72
2022/12/20 09:49:58;;;;;;;10.32;3.30;;;;;;;9.26;100.00;100946.50;5050246;28;20036;-72
2022/12/20 09:52:55;;;;;;;9.02;3.20;;;;;;;9.27;100.00;100958.09;5051360;28;20025;-70
2022/12/20 09:55:37;;;;;;;9.32;3.30;;;;;;;9.27;100.00;100942.00;5048343;28;20044;-70
2022/12/20 09:58:02;;;;;;;11.98;3.55;;;;;;;9.26;100.00;100946.50;5052999;28;20029;-70
2022/12/20 10:00:29;;;;;;;11.82;3.67;;;;;;;9.27;100.00;100948.22;5053038;28;20041;-71
2022/12/20 10:02:55;;;;;;;10.40;3.33;;;;;;;9.29;100.00;100944.59;5053048;28;20029;-71
2022/12/20 10:05:41;;;;;;;10.65;3.20;;;;;;;9.30;100.00;100941.81;5054828;28;20063;-70
2022/12/20 10:08:28;;;;;;;11.13;3.53;;;;;;;9.32;100.00;100936.34;5048625;28;20026;-73
2022/12/20 10:11:02;;;;;;;11.35;3.70;;;;;;;9.35;100.00;100938.81;5058944;28;20033;-70
2022/12/20 10:13:27;;;;;;;10.98;3.65;;;;;;;9.36;100.00;100927.97;5060373;28;20032;-70
2022/12/20 10:16:10;;;;;;;10.90;3.45;;;;;;;9.40;100.00;100940.22;5054903;28;20026;-70
2022/12/20 10:19:01;;;;;;;11.07;3.25;;;;;;;9.44;100.00;100931.03;5047241;28;20115;-71
2022/12/20 10:21:52;;;;;;;7.38;3.00;;;;;;;9.49;100.00;100936.06;5055681;28;20033;-71
2022/12/20 10:24:23;;;;;;;10.80;3.53;;;;;;;9.52;100.00;100935.00;5049418;28;20035;-70
2022/12/20 10:26:50;;;;;;;16.23;3.58;;;;;;;9.58;100.00;100950.69;5054391;28;20017;-71
2022/12/20 10:29:16;;;;;;;10.73;3.55;;;;;;;9.60;100.00;100944.25;5049123;28;20084;-71
2022/12/20 10:31:42;;;;;;;10.63;3.30;;;;;;;9.64;100.00;100950.25;5052863;28;20036;-70
2022/12/20 10:34:07;;;;;;;10.20;3.35;;;;;;;9.64;100.00;100950.25;5058679;28;20025;-72
2022/12/20 10:36:35;;;;;;;11.70;3.85;;;;;;;9.64;100.00;100947.59;5057477;28;20107;-70
2022/12/20 10:39:06;;;;;;;10.70;3.80;;;;;;;9.62;100.00;100942.31;5057566;28;20495;-70
2022/12/20 10:41:37;;;;;;;12.90;3.83;;;;;;;9.61;100.00;100937.91;5055535;28;20052;-70
2022/12/20 10:44:04;;;;;;;14.73;4.15;;;;;;;9.59;100.00;100941.66;5053693;28;20068;-72
2022/12/20 10:46:49;;;;;;;14.35;4.22;;;;;;;9.58;100.00;100934.59;5054260;28;20017;-71
2022/12/20 10:49:44;;;;;;;11.38;3.90;;;;;;;9.57;100.00;100922.97;5060980;28;20128;-71
2022/12/20 10:52:13;;;;;;;17.85;4.50;;;;;;;9.54;100.00;100922.34;5050289;28;20876;-70
2022/12/20 10:54:40;;;;;;;10.32;3.92;;;;;;;9.53;100.00;100915.25;5068070;28;20111;-70
2022/12/20 10:57:14;;;;;;;13.20;3.80;;;;;;;9.51;100.00;100914.50;5057749;28;20049;-69
2022/12/20 10:59:44;;;;;;;9.82;3.67;;;;;;;9.49;100.00;100919.97;5059318;28;20397;-69
2022/12/20 11:02:25;;;;;;;12.73;4.10;;;;;;;9.48;100.00;100910.19;5056415;28;20028;-70
2022/12/20 11:05:00;;;;;;;12.63;4.25;;;;;;;9.45;100.00;100919.31;5056767;28;20090;-69
2022/12/20 11:07:29;;;;;;;12.65;4.25;;;;;;;9.44;100.00;100906.88;5060067;28;20040;-71
2022/12/20 11:09:58;;;;;;;14.80;3.75;;;;;;;9.42;100.00;100908.78;5055638;28;20067;-69
2022/12/20 11:12:23;;;;;;;17.50;4.53;;;;;;;9.42;100.00;100916.84;5058302;28;20021;-69
2022/12/20 11:14:49;;;;;;;12.27;3.92;;;;;;;9.40;100.00;100909.84;5058866;28;20156;-69
2022/12/20 11:17:34;;;;;;;13.35;3.90;;;;;;;9.40;100.00;100905.34;5059609;28;20037;-69
2022/12/20 11:20:38;;;;;;;12.05;4.05;;;;;;;9.40;100.00;100900.00;5059448;28;20082;-69
2022/12/20 11:23:39;;;;;;;14.32;4.22;;;;;;;9.39;100.00;100895.59;5037010;28;20029;-70
2022/12/20 11:26:55;;;;;;;12.38;4.03;;;;;;;9.40;100.00;100904.47;4957822;29;20051;-70
2022/12/20 11:29:34;;;;;;;10.48;3.85;;;;;;;9.41;100.00;100901.72;4901834;29;20049;-69
2022/12/20 11:32:18;;;;;;;14.95;4.50;;;;;;;9.41;100.00;100906.22;4902211;29;20048;-69
2022/12/20 11:35:06;;;;;;;12.48;3.83;;;;;;;9.40;100.00;100904.47;4902143;29;20056;-69
2022/12/20 11:37:44;;;;;;;16.13;4.22;;;;;;;9.41;100.00;100893.69;4903356;29;20048;-69
2022/12/20 11:40:31;;;;;;;11.68;3.97;;;;;;;9.41;100.00;100893.69;4903766;29;20040;-69